sensor_id;sensor_type;location;lat;lon;timestamp;pressure;altitude;pressure_sealevel;temperature;humidity
49455;BME280;69710;64.656;21.218;2023-07-20T00:00:46;99868.20;;;12.81;100.00
49455;BME280;69710;64.656;21.218;2023-07-20T00:03:15;99865.18;;;12.41;100.00
49455;BME280;69710;64.656;21.218;2023-07-20T00:05:43;99865.83;;;12.60;100.00
49455;BME280;69710;64.656;21.218;2023-07-20T00:08:11;99863.69;;;12.41;100.00
49455;BME280;69710;64.656;21.218;2023-07-20T00:10:40;99862.28;;;12.83;100.00
49455;BME280;69710;64.656;21.218;2023-07-20T00:13:09;99865.11;;;12.85;100.00
49455;BME280;69710;64.656;21.218;2023-07-20T00:15:37;99866.50;;;12.36;100.00
49455;BME280;69710;64.656;21.218;2023-07-20T00:18:05;99861.63;;;12.74;100.00
49455;BME280;69710;64.656;21.218;2023-07-20T00:20:33;99863.30;;;12.62;100.00
49455;BME280;69710;64.656;21.218;2023-07-20T00:23:01;99862.65;;;12.48;100.00
49455;BME280;69710;64.656;21.218;2023-07-20T00:25:29;99866.42;;;12.58;100.00
49455;BME280;69710;64.656;21.218;2023-07-20T00:27:57;99867.65;;;12.76;100.00
49455;BME280;69710;64.656;21.218;2023-07-20T00:30:24;99869.36;;;12.30;100.00
49455;BME280;69710;64.656;21.218;2023-07-20T00:32:51;99864.78;;;12.42;100.00
49455;BME280;69710;64.656;21.218;2023-07-20T00:35:18;99867.59;;;12.65;100.00
49455;BME280;69710;64.656;21.218;2023-07-20T00:37:46;99868.37;;;12.52;100.00
49455;BME280;69710;64.656;21.218;2023-07-20T00:40:14;99865.98;;;12.53;100.00
49455;BME280;69710;64.656;21.218;2023-07-20T00:42:42;99864.57;;;12.49;100.00
49455;BME280;69710;64.656;21.218;2023-07-20T00:45:10;99867.75;;;12.52;100.00
49455;BME280;69710;64.656;21.218;2023-07-20T00:47:37;99869.56;;;12.36;100.00
49455;BME280;69710;64.656;21.218;2023-07-20T00:50:05;99867.50;;;12.60;100.00
49455;BME280;69710;64.656;21.218;2023-07-20T00:52:34;99869.46;;;12.78;100.00
49455;BME280;69710;64.656;21.218;2023-07-20T00:55:02;99867.09;;;12.39;100.00
49455;BME280;69710;64.656;21.218;2023-07-20T00:57:30;99868.64;;;12.21;100.00
49455;BME280;69710;64.656;21.218;2023-07-20T00:59:58;99870.47;;;12.60;100.00
49455;BME280;69710;64.656;21.218;2023-07-20T01:02:26;99868.01;;;12.41;100.00
49455;BME280;69710;64.656;21.218;2023-07-20T01:04:54;99866.65;;;12.31;100.00
49455;BME280;69710;64.656;21.218;2023-07-20T01:07:26;99865.34;;;12.58;100.00
49455;BME280;69710;64.656;21.218;2023-07-20T01:10:08;99865.22;;;12.58;100.00
49455;BME280;69710;64.656;21.218;2023-07-20T01:12:42;99864.82;;;12.80;100.00
49455;BME280;69710;64.656;21.218;2023-07-20T01:15:10;99865.10;;;12.78;100.00
49455;BME280;69710;64.656;21.218;2023-07-20T01:17:38;99865.57;;;12.91;100.00
49455;BME280;69710;64.656;21.218;2023-07-20T01:20:07;99865.99;;;12.59;100.00
49455;BME280;69710;64.656;21.218;2023-07-20T01:23:16;99868.29;;;12.68;100.00
49455;BME280;69710;64.656;21.218;2023-07-20T01:26:04;99868.87;;;12.70;100.00
49455;BME280;69710;64.656;21.218;2023-07-20T01:28:47;99866.61;;;12.49;100.00
49455;BME280;69710;64.656;21.218;2023-07-20T01:31:23;99866.71;;;12.46;100.00
49455;BME280;69710;64.656;21.218;2023-07-20T01:33:54;99866.19;;;12.85;100.00
49455;BME280;69710;64.656;21.218;2023-07-20T01:36:24;99861.01;;;12.61;100.00
49455;BME280;69710;64.656;21.218;2023-07-20T01:38:54;99862.74;;;12.81;100.00
49455;BME280;69710;64.656;21.218;2023-07-20T01:41:23;99857.94;;;13.00;100.00
49455;BME280;69710;64.656;21.218;2023-07-20T01:43:51;99859.79;;;12.90;100.00
49455;BME280;69710;64.656;21.218;2023-07-20T01:46:19;99856.00;;;12.83;100.00
49455;BME280;69710;64.656;21.218;2023-07-20T01:48:46;99852.42;;;12.83;100.00
49455;BME280;69710;64.656;21.218;2023-07-20T01:51:14;99853.12;;;13.11;100.00
49455;BME280;69710;64.656;21.218;2023-07-20T01:53:41;99855.24;;;13.09;100.00
49455;BME280;69710;64.656;21.218;2023-07-20T01:56:09;99856.30;;;13.14;100.00
49455;BME280;69710;64.656;21.218;2023-07-20T01:58:37;99853.85;;;13.51;100.00
49455;BME280;69710;64.656;21.218;2023-07-20T02:01:04;99853.28;;;13.46;100.00
49455;BME280;69710;64.656;21.218;2023-07-20T02:03:32;99848.77;;;14.21;100.00
49455;BME280;69710;64.656;21.218;2023-07-20T02:05:59;99847.25;;;14.57;100.00
49455;BME280;69710;64.656;21.218;2023-07-20T02:08:27;99846.10;;;14.87;100.00
49455;BME280;69710;64.656;21.218;2023-07-20T02:10:55;99844.10;;;15.19;100.00
49455;BME280;69710;64.656;21.218;2023-07-20T02:13:23;99842.25;;;14.88;100.00
49455;BME280;69710;64.656;21.218;2023-07-20T02:15:51;99841.51;;;15.29;100.00
49455;BME280;69710;64.656;21.218;2023-07-20T02:18:18;99842.97;;;14.94;100.00
49455;BME280;69710;64.656;21.218;2023-07-20T02:20:46;99842.33;;;14.74;100.00
49455;BME280;69710;64.656;21.218;2023-07-20T02:23:14;99846.11;;;14.86;100.00
49455;BME280;69710;64.656;21.218;2023-07-20T02:25:42;99846.35;;;14.74;100.00
49455;BME280;69710;64.656;21.218;2023-07-20T02:28:13;99847.17;;;14.69;100.00
49455;BME280;69710;64.656;21.218;2023-07-20T02:30:41;99848.92;;;14.34;100.00
49455;BME280;69710;64.656;21.218;2023-07-20T02:33:09;99855.31;;;13.17;100.00
49455;BME280;69710;64.656;21.218;2023-07-20T02:35:38;99852.19;;;13.77;100.00
49455;BME280;69710;64.656;21.218;2023-07-20T02:38:05;99854.26;;;12.64;100.00
49455;BME280;69710;64.656;21.218;2023-07-20T02:40:33;99851.19;;;13.40;100.00
49455;BME280;69710;64.656;21.218;2023-07-20T02:43:00;99847.71;;;13.36;100.00
49455;BME280;69710;64.656;21.218;2023-07-20T02:45:27;99848.72;;;12.93;100.00
49455;BME280;69710;64.656;21.218;2023-07-20T02:47:56;99848.48;;;13.75;100.00
49455;BME280;69710;64.656;21.218;2023-07-20T02:50:23;99848.39;;;13.96;100.00
49455;BME280;69710;64.656;21.218;2023-07-20T02:52:51;99848.83;;;13.75;100.00
49455;BME280;69710;64.656;21.218;2023-07-20T02:55:18;99847.77;;;13.44;100.00
49455;BME280;69710;64.656;21.218;2023-07-20T02:57:45;99850.63;;;13.64;100.00
49455;BME280;69710;64.656;21.218;2023-07-20T03:00:13;99850.74;;;13.31;100.00
49455;BME280;69710;64.656;21.218;2023-07-20T03:02:41;99849.12;;;13.48;100.00
49455;BME280;69710;64.656;21.218;2023-07-20T03:05:09;99848.11;;;13.13;100.00
49455;BME280;69710;64.656;21.218;2023-07-20T03:07:37;99847.27;;;13.65;100.00
49455;BME280;69710;64.656;21.218;2023-07-20T03:10:05;99842.65;;;13.13;100.00
49455;BME280;69710;64.656;21.218;2023-07-20T03:12:33;99840.77;;;13.55;100.00
49455;BME280;69710;64.656;21.218;2023-07-20T03:15:01;99840.29;;;13.37;100.00
49455;BME280;69710;64.656;21.218;2023-07-20T03:17:29;99837.19;;;12.64;100.00
49455;BME280;69710;64.656;21.218;2023-07-20T03:19:57;99835.02;;;12.51;100.00
49455;BME280;69710;64.656;21.218;2023-07-20T03:22:25;99839.33;;;12.44;100.00
49455;BME280;69710;64.656;21.218;2023-07-20T03:24:53;99840.87;;;11.80;100.00
49455;BME280;69710;64.656;21.218;2023-07-20T03:27:21;99842.13;;;11.58;100.00
49455;BME280;69710;64.656;21.218;2023-07-20T03:29:48;99843.88;;;11.64;100.00
49455;BME280;69710;64.656;21.218;2023-07-20T03:32:15;99840.78;;;11.46;100.00
49455;BME280;69710;64.656;21.218;2023-07-20T03:34:43;99843.45;;;11.40;100.00
49455;BME280;69710;64.656;21.218;2023-07-20T03:37:12;99842.78;;;11.29;100.00
49455;BME280;69710;64.656;21.218;2023-07-20T03:39:40;99843.59;;;12.25;100.00
49455;BME280;69710;64.656;21.218;2023-07-20T03:42:08;99841.95;;;11.78;100.00
49455;BME280;69710;64.656;21.218;2023-07-20T03:44:35;99842.95;;;11.98;100.00
49455;BME280;69710;64.656;21.218;2023-07-20T03:47:03;99844.46;;;12.92;100.00
49455;BME280;69710;64.656;21.218;2023-07-20T03:49:31;99844.80;;;12.47;100.00
49455;BME280;69710;64.656;21.218;2023-07-20T03:51:58;99844.36;;;12.92;100.00
49455;BME280;69710;64.656;21.218;2023-07-20T03:54:26;99842.78;;;12.50;100.00
49455;BME280;69710;64.656;21.218;2023-07-20T03:56:53;99844.01;;;12.85;100.00
49455;BME280;69710;64.656;21.218;2023-07-20T03:59:21;99840.77;;;12.83;100.00
49455;BME280;69710;64.656;21.218;2023-07-20T04:01:49;99840.97;;;13.15;100.00
49455;BME280;69710;64.656;21.218;2023-07-20T04:04:17;99844.53;;;12.57;100.00
49455;BME280;69710;64.656;21.218;2023-07-20T04:06:44;99843.44;;;12.71;100.00
49455;BME280;69710;64.656;21.218;2023-07-20T04:09:12;99842.42;;;13.16;100.00
49455;BME280;69710;64.656;21.218;2023-07-20T04:11:40;99846.04;;;13.46;100.00
49455;BME280;69710;64.656;21.218;2023-07-20T04:14:07;99845.87;;;13.26;100.00
49455;BME280;69710;64.656;21.218;2023-07-20T04:16:35;99848.29;;;13.40;100.00
49455;BME280;69710;64.656;21.218;2023-07-20T04:19:03;99848.89;;;13.52;100.00
49455;BME280;69710;64.656;21.218;2023-07-20T04:21:31;99849.67;;;12.85;100.00
49455;BME280;69710;64.656;21.218;2023-07-20T04:23:59;99853.52;;;12.52;100.00
49455;BME280;69710;64.656;21.218;2023-07-20T04:26:27;99853.98;;;12.75;100.00
49455;BME280;69710;64.656;21.218;2023-07-20T04:28:54;99850.48;;;13.37;100.00
49455;BME280;69710;64.656;21.218;2023-07-20T04:31:21;99850.06;;;13.17;100.00
49455;BME280;69710;64.656;21.218;2023-07-20T04:33:50;99850.55;;;13.12;100.00
49455;BME280;69710;64.656;21.218;2023-07-20T04:36:18;99847.57;;;13.05;100.00
49455;BME280;69710;64.656;21.218;2023-07-20T04:38:46;99848.62;;;12.94;100.00
49455;BME280;69710;64.656;21.218;2023-07-20T04:41:14;99849.52;;;13.31;100.00
49455;BME280;69710;64.656;21.218;2023-07-20T04:43:42;99847.95;;;13.19;100.00
49455;BME280;69710;64.656;21.218;2023-07-20T04:46:10;99848.71;;;12.31;100.00
49455;BME280;69710;64.656;21.218;2023-07-20T04:48:38;99848.81;;;13.23;100.00
49455;BME280;69710;64.656;21.218;2023-07-20T04:51:06;99848.29;;;12.11;100.00
49455;BME280;69710;64.656;21.218;2023-07-20T04:53:33;99853.35;;;12.07;100.00
49455;BME280;69710;64.656;21.218;2023-07-20T04:56:01;99847.63;;;12.36;100.00
49455;BME280;69710;64.656;21.218;2023-07-20T04:58:29;99848.68;;;12.06;100.00
49455;BME280;69710;64.656;21.218;2023-07-20T05:00:57;99848.16;;;12.13;100.00
49455;BME280;69710;64.656;21.218;2023-07-20T05:03:25;99848.39;;;11.70;100.00
49455;BME280;69710;64.656;21.218;2023-07-20T05:05:53;99845.67;;;11.95;100.00
49455;BME280;69710;64.656;21.218;2023-07-20T05:08:20;99848.53;;;11.32;100.00
49455;BME280;69710;64.656;21.218;2023-07-20T05:10:48;99850.52;;;11.60;100.00
49455;BME280;69710;64.656;21.218;2023-07-20T05:13:16;99847.43;;;11.52;100.00
49455;BME280;69710;64.656;21.218;2023-07-20T05:15:44;99845.69;;;11.80;100.00
49455;BME280;69710;64.656;21.218;2023-07-20T05:18:11;99844.39;;;11.61;100.00
49455;BME280;69710;64.656;21.218;2023-07-20T05:20:38;99841.16;;;11.83;100.00
49455;BME280;69710;64.656;21.218;2023-07-20T05:23:06;99844.76;;;11.81;100.00
49455;BME280;69710;64.656;21.218;2023-07-20T05:25:33;99843.64;;;11.70;100.00
49455;BME280;69710;64.656;21.218;2023-07-20T05:28:01;99846.67;;;11.57;100.00
49455;BME280;69710;64.656;21.218;2023-07-20T05:30:28;99845.30;;;11.68;100.00
49455;BME280;69710;64.656;21.218;2023-07-20T05:32:56;99846.57;;;11.65;100.00
49455;BME280;69710;64.656;21.218;2023-07-20T05:35:25;99845.18;;;11.84;100.00
49455;BME280;69710;64.656;21.218;2023-07-20T05:37:53;99846.93;;;11.67;100.00
49455;BME280;69710;64.656;21.218;2023-07-20T05:40:21;99847.98;;;11.54;100.00
49455;BME280;69710;64.656;21.218;2023-07-20T05:42:48;99850.42;;;11.68;100.00
49455;BME280;69710;64.656;21.218;2023-07-20T05:45:16;99852.84;;;11.94;100.00
49455;BME280;69710;64.656;21.218;2023-07-20T05:47:44;99851.32;;;11.88;100.00
49455;BME280;69710;64.656;21.218;2023-07-20T05:50:11;99851.38;;;11.91;100.00
49455;BME280;69710;64.656;21.218;2023-07-20T05:52:40;99847.85;;;12.00;100.00
49455;BME280;69710;64.656;21.218;2023-07-20T05:55:08;99848.41;;;11.98;100.00
49455;BME280;69710;64.656;21.218;2023-07-20T05:57:36;99847.55;;;12.18;100.00
49455;BME280;69710;64.656;21.218;2023-07-20T06:00:05;99850.06;;;12.09;100.00
49455;BME280;69710;64.656;21.218;2023-07-20T06:02:33;99850.12;;;12.23;100.00
49455;BME280;69710;64.656;21.218;2023-07-20T06:05:01;99849.25;;;12.18;100.00
49455;BME280;69710;64.656;21.218;2023-07-20T06:07:29;99850.39;;;11.81;100.00
49455;BME280;69710;64.656;21.218;2023-07-20T06:09:56;99849.43;;;12.16;100.00
49455;BME280;69710;64.656;21.218;2023-07-20T06:12:24;99850.77;;;12.10;100.00
49455;BME280;69710;64.656;21.218;2023-07-20T06:14:52;99852.00;;;11.76;100.00
49455;BME280;69710;64.656;21.218;2023-07-20T06:17:20;99852.84;;;11.87;100.00
49455;BME280;69710;64.656;21.218;2023-07-20T06:19:48;99851.13;;;12.16;100.00
49455;BME280;69710;64.656;21.218;2023-07-20T06:22:16;99848.63;;;11.65;100.00
49455;BME280;69710;64.656;21.218;2023-07-20T06:24:44;99849.23;;;11.75;100.00
49455;BME280;69710;64.656;21.218;2023-07-20T06:27:11;99849.41;;;11.87;100.00
49455;BME280;69710;64.656;21.218;2023-07-20T06:29:39;99850.37;;;11.76;100.00
49455;BME280;69710;64.656;21.218;2023-07-20T06:32:07;99854.34;;;11.72;100.00
49455;BME280;69710;64.656;21.218;2023-07-20T06:34:35;99856.30;;;11.89;100.00
49455;BME280;69710;64.656;21.218;2023-07-20T06:37:03;99859.19;;;11.82;100.00
49455;BME280;69710;64.656;21.218;2023-07-20T06:39:30;99861.06;;;11.57;100.00
49455;BME280;69710;64.656;21.218;2023-07-20T06:41:58;99858.28;;;11.50;100.00
49455;BME280;69710;64.656;21.218;2023-07-20T06:44:26;99859.22;;;11.47;100.00
49455;BME280;69710;64.656;21.218;2023-07-20T06:46:53;99859.87;;;11.54;100.00
49455;BME280;69710;64.656;21.218;2023-07-20T06:49:28;99859.72;;;11.69;100.00
49455;BME280;69710;64.656;21.218;2023-07-20T06:51:57;99860.15;;;11.53;100.00
49455;BME280;69710;64.656;21.218;2023-07-20T06:54:24;99861.16;;;11.74;100.00
49455;BME280;69710;64.656;21.218;2023-07-20T06:56:52;99860.68;;;11.77;100.00
49455;BME280;69710;64.656;21.218;2023-07-20T06:59:20;99861.69;;;11.46;100.00
49455;BME280;69710;64.656;21.218;2023-07-20T07:01:47;99861.85;;;11.75;100.00
49455;BME280;69710;64.656;21.218;2023-07-20T07:04:15;99862.15;;;11.81;100.00
49455;BME280;69710;64.656;21.218;2023-07-20T07:06:43;99861.14;;;12.17;100.00
49455;BME280;69710;64.656;21.218;2023-07-20T07:09:11;99861.06;;;11.62;100.00
49455;BME280;69710;64.656;21.218;2023-07-20T07:11:39;99863.69;;;11.54;100.00
49455;BME280;69710;64.656;21.218;2023-07-20T07:14:06;99863.14;;;11.57;100.00
49455;BME280;69710;64.656;21.218;2023-07-20T07:16:34;99861.49;;;11.89;100.00
49455;BME280;69710;64.656;21.218;2023-07-20T07:19:02;99866.96;;;12.24;100.00
49455;BME280;69710;64.656;21.218;2023-07-20T07:21:29;99865.97;;;12.13;100.00
49455;BME280;69710;64.656;21.218;2023-07-20T07:23:57;99868.55;;;13.37;100.00
49455;BME280;69710;64.656;21.218;2023-07-20T07:26:25;99870.70;;;13.89;100.00
49455;BME280;69710;64.656;21.218;2023-07-20T07:28:53;99873.36;;;12.98;100.00
49455;BME280;69710;64.656;21.218;2023-07-20T07:31:21;99871.54;;;12.77;100.00
49455;BME280;69710;64.656;21.218;2023-07-20T07:33:49;99868.61;;;14.67;100.00
49455;BME280;69710;64.656;21.218;2023-07-20T07:36:16;99870.37;;;14.70;100.00
49455;BME280;69710;64.656;21.218;2023-07-20T07:38:44;99875.25;;;12.68;100.00
49455;BME280;69710;64.656;21.218;2023-07-20T07:41:12;99874.63;;;12.35;100.00
49455;BME280;69710;64.656;21.218;2023-07-20T07:43:40;99876.99;;;12.10;100.00
49455;BME280;69710;64.656;21.218;2023-07-20T07:46:07;99879.59;;;11.97;100.00
49455;BME280;69710;64.656;21.218;2023-07-20T07:48:34;99881.67;;;11.90;100.00
49455;BME280;69710;64.656;21.218;2023-07-20T07:51:07;99881.54;;;11.68;100.00
49455;BME280;69710;64.656;21.218;2023-07-20T07:53:34;99881.21;;;11.68;100.00
49455;BME280;69710;64.656;21.218;2023-07-20T07:56:02;99882.01;;;11.67;100.00
49455;BME280;69710;64.656;21.218;2023-07-20T07:58:30;99883.96;;;11.64;100.00
49455;BME280;69710;64.656;21.218;2023-07-20T08:00:58;99883.05;;;11.96;100.00
49455;BME280;69710;64.656;21.218;2023-07-20T08:03:25;99884.84;;;12.12;100.00
49455;BME280;69710;64.656;21.218;2023-07-20T08:05:54;99887.12;;;11.96;100.00
49455;BME280;69710;64.656;21.218;2023-07-20T08:08:22;99887.77;;;12.09;100.00
49455;BME280;69710;64.656;21.218;2023-07-20T08:10:52;99885.56;;;12.28;100.00
49455;BME280;69710;64.656;21.218;2023-07-20T08:13:20;99886.19;;;11.99;100.00
49455;BME280;69710;64.656;21.218;2023-07-20T08:15:50;99885.97;;;11.91;100.00
49455;BME280;69710;64.656;21.218;2023-07-20T08:18:18;99889.38;;;11.90;100.00
49455;BME280;69710;64.656;21.218;2023-07-20T08:20:46;99890.57;;;12.04;100.00
49455;BME280;69710;64.656;21.218;2023-07-20T08:23:14;99892.40;;;12.31;100.00
49455;BME280;69710;64.656;21.218;2023-07-20T08:25:41;99892.06;;;12.27;100.00
49455;BME280;69710;64.656;21.218;2023-07-20T08:28:09;99895.07;;;13.05;100.00
49455;BME280;69710;64.656;21.218;2023-07-20T08:30:42;99897.37;;;13.13;100.00
49455;BME280;69710;64.656;21.218;2023-07-20T08:33:10;99897.23;;;13.08;100.00
49455;BME280;69710;64.656;21.218;2023-07-20T08:35:38;99893.48;;;14.94;100.00
49455;BME280;69710;64.656;21.218;2023-07-20T08:38:06;99895.69;;;14.96;100.00
49455;BME280;69710;64.656;21.218;2023-07-20T08:40:33;99899.96;;;13.42;100.00
49455;BME280;69710;64.656;21.218;2023-07-20T08:43:01;99896.47;;;14.65;100.00
49455;BME280;69710;64.656;21.218;2023-07-20T08:45:29;99904.45;;;13.53;100.00
49455;BME280;69710;64.656;21.218;2023-07-20T08:48:00;99902.11;;;14.02;100.00
49455;BME280;69710;64.656;21.218;2023-07-20T08:50:30;99899.65;;;14.50;100.00
49455;BME280;69710;64.656;21.218;2023-07-20T08:52:59;99901.57;;;14.02;100.00
49455;BME280;69710;64.656;21.218;2023-07-20T08:55:28;99900.55;;;14.43;100.00
49455;BME280;69710;64.656;21.218;2023-07-20T08:57:57;99904.70;;;14.95;100.00
49455;BME280;69710;64.656;21.218;2023-07-20T09:00:26;99903.81;;;14.74;100.00
49455;BME280;69710;64.656;21.218;2023-07-20T09:02:54;99906.27;;;14.19;100.00
49455;BME280;69710;64.656;21.218;2023-07-20T09:05:23;99910.82;;;13.62;100.00
49455;BME280;69710;64.656;21.218;2023-07-20T09:07:51;99912.58;;;13.79;100.00
49455;BME280;69710;64.656;21.218;2023-07-20T09:10:20;99908.58;;;13.56;100.00
49455;BME280;69710;64.656;21.218;2023-07-20T09:12:47;99908.52;;;13.37;100.00
49455;BME280;69710;64.656;21.218;2023-07-20T09:15:16;99909.65;;;13.31;100.00
49455;BME280;69710;64.656;21.218;2023-07-20T09:17:46;99912.85;;;12.94;100.00
49455;BME280;69710;64.656;21.218;2023-07-20T09:20:16;99913.64;;;12.97;100.00
49455;BME280;69710;64.656;21.218;2023-07-20T09:22:44;99911.77;;;12.98;100.00
49455;BME280;69710;64.656;21.218;2023-07-20T09:25:13;99910.44;;;13.06;100.00
49455;BME280;69710;64.656;21.218;2023-07-20T09:27:42;99912.40;;;12.81;100.00
49455;BME280;69710;64.656;21.218;2023-07-20T09:30:11;99913.78;;;12.76;100.00
49455;BME280;69710;64.656;21.218;2023-07-20T09:32:40;99915.78;;;13.35;100.00
49455;BME280;69710;64.656;21.218;2023-07-20T09:35:13;99913.65;;;13.63;100.00
49455;BME280;69710;64.656;21.218;2023-07-20T09:37:46;99913.86;;;14.04;100.00
49455;BME280;69710;64.656;21.218;2023-07-20T09:40:15;99913.97;;;13.50;100.00
49455;BME280;69710;64.656;21.218;2023-07-20T09:42:43;99918.02;;;13.53;100.00
49455;BME280;69710;64.656;21.218;2023-07-20T09:45:11;99918.75;;;13.41;100.00
49455;BME280;69710;64.656;21.218;2023-07-20T09:47:39;99920.80;;;13.73;100.00
49455;BME280;69710;64.656;21.218;2023-07-20T09:50:08;99921.96;;;13.39;100.00
49455;BME280;69710;64.656;21.218;2023-07-20T09:52:38;99923.96;;;13.31;100.00
49455;BME280;69710;64.656;21.218;2023-07-20T09:55:07;99923.19;;;12.88;100.00
49455;BME280;69710;64.656;21.218;2023-07-20T09:57:35;99926.21;;;12.33;100.00
49455;BME280;69710;64.656;21.218;2023-07-20T10:00:05;99922.07;;;12.46;100.00
49455;BME280;69710;64.656;21.218;2023-07-20T10:02:33;99922.28;;;13.01;100.00
49455;BME280;69710;64.656;21.218;2023-07-20T10:05:03;99920.87;;;13.25;100.00
49455;BME280;69710;64.656;21.218;2023-07-20T10:07:31;99919.83;;;13.85;100.00
49455;BME280;69710;64.656;21.218;2023-07-20T10:10:02;99922.11;;;13.54;100.00
49455;BME280;69710;64.656;21.218;2023-07-20T10:12:31;99925.30;;;13.05;100.00
49455;BME280;69710;64.656;21.218;2023-07-20T10:15:04;99924.46;;;13.66;100.00
49455;BME280;69710;64.656;21.218;2023-07-20T10:17:36;99926.86;;;13.63;100.00
49455;BME280;69710;64.656;21.218;2023-07-20T10:20:06;99929.56;;;13.08;100.00
49455;BME280;69710;64.656;21.218;2023-07-20T10:22:36;99935.19;;;12.72;100.00
49455;BME280;69710;64.656;21.218;2023-07-20T10:25:05;99936.71;;;12.73;100.00
49455;BME280;69710;64.656;21.218;2023-07-20T10:27:34;99938.84;;;12.99;100.00
49455;BME280;69710;64.656;21.218;2023-07-20T10:30:02;99933.77;;;12.17;100.00
49455;BME280;69710;64.656;21.218;2023-07-20T10:32:30;99937.17;;;12.13;100.00
49455;BME280;69710;64.656;21.218;2023-07-20T10:34:57;99933.68;;;13.21;100.00
49455;BME280;69710;64.656;21.218;2023-07-20T10:38:01;99930.53;;;13.66;100.00
49455;BME280;69710;64.656;21.218;2023-07-20T10:40:32;99931.41;;;13.39;100.00
49455;BME280;69710;64.656;21.218;2023-07-20T10:43:03;99930.37;;;12.68;100.00
49455;BME280;69710;64.656;21.218;2023-07-20T10:45:35;99928.93;;;13.39;100.00
49455;BME280;69710;64.656;21.218;2023-07-20T10:48:05;99924.97;;;15.22;100.00
49455;BME280;69710;64.656;21.218;2023-07-20T10:50:33;99929.17;;;14.12;100.00
49455;BME280;69710;64.656;21.218;2023-07-20T10:53:11;99925.57;;;15.31;100.00
49455;BME280;69710;64.656;21.218;2023-07-20T10:55:39;99927.43;;;16.60;100.00
49455;BME280;69710;64.656;21.218;2023-07-20T10:58:08;99929.31;;;16.26;100.00
49455;BME280;69710;64.656;21.218;2023-07-20T11:00:36;99932.16;;;15.96;100.00
49455;BME280;69710;64.656;21.218;2023-07-20T11:03:04;99930.94;;;16.26;100.00
49455;BME280;69710;64.656;21.218;2023-07-20T11:05:33;99934.79;;;14.55;100.00
49455;BME280;69710;64.656;21.218;2023-07-20T11:08:04;99938.60;;;14.48;100.00
49455;BME280;69710;64.656;21.218;2023-07-20T11:10:32;99934.24;;;16.01;100.00
49455;BME280;69710;64.656;21.218;2023-07-20T11:13:31;99937.10;;;16.16;100.00
49455;BME280;69710;64.656;21.218;2023-07-20T11:16:04;99938.40;;;14.96;100.00
49455;BME280;69710;64.656;21.218;2023-07-20T11:18:34;99939.66;;;15.56;100.00
49455;BME280;69710;64.656;21.218;2023-07-20T11:21:09;99939.73;;;15.51;100.00
49455;BME280;69710;64.656;21.218;2023-07-20T11:23:38;99942.69;;;14.53;100.00
49455;BME280;69710;64.656;21.218;2023-07-20T11:26:06;99938.17;;;15.84;100.00
49455;BME280;69710;64.656;21.218;2023-07-20T11:28:34;99940.00;;;15.53;100.00
49455;BME280;69710;64.656;21.218;2023-07-20T11:31:02;99944.70;;;15.39;100.00
49455;BME280;69710;64.656;21.218;2023-07-20T11:33:30;99948.55;;;15.27;100.00
49455;BME280;69710;64.656;21.218;2023-07-20T11:35:57;99945.46;;;15.40;100.00
49455;BME280;69710;64.656;21.218;2023-07-20T11:38:25;99949.88;;;15.32;100.00
49455;BME280;69710;64.656;21.218;2023-07-20T11:40:53;99944.52;;;15.10;100.00
49455;BME280;69710;64.656;21.218;2023-07-20T11:43:21;99942.09;;;15.17;100.00
49455;BME280;69710;64.656;21.218;2023-07-20T11:45:50;99943.02;;;13.87;100.00
49455;BME280;69710;64.656;21.218;2023-07-20T11:48:18;99938.87;;;15.25;100.00
49455;BME280;69710;64.656;21.218;2023-07-20T11:50:45;99937.80;;;16.19;100.00
49455;BME280;69710;64.656;21.218;2023-07-20T11:53:13;99941.87;;;15.98;100.00
49455;BME280;69710;64.656;21.218;2023-07-20T11:55:41;99943.62;;;15.99;100.00
49455;BME280;69710;64.656;21.218;2023-07-20T11:58:09;99943.64;;;15.60;100.00
49455;BME280;69710;64.656;21.218;2023-07-20T12:00:38;99944.98;;;14.87;100.00
49455;BME280;69710;64.656;21.218;2023-07-20T12:03:07;99942.75;;;15.11;100.00
49455;BME280;69710;64.656;21.218;2023-07-20T12:05:35;99940.07;;;15.54;100.00
49455;BME280;69710;64.656;21.218;2023-07-20T12:08:04;99944.32;;;14.86;100.00
49455;BME280;69710;64.656;21.218;2023-07-20T12:10:32;99944.69;;;15.89;100.00
49455;BME280;69710;64.656;21.218;2023-07-20T12:13:02;99945.06;;;15.50;100.00
49455;BME280;69710;64.656;21.218;2023-07-20T12:15:30;99948.38;;;15.59;100.00
49455;BME280;69710;64.656;21.218;2023-07-20T12:17:58;99950.07;;;15.34;100.00
49455;BME280;69710;64.656;21.218;2023-07-20T12:20:28;99948.85;;;15.36;100.00
49455;BME280;69710;64.656;21.218;2023-07-20T12:22:59;99954.36;;;15.71;100.00
49455;BME280;69710;64.656;21.218;2023-07-20T12:25:45;99954.44;;;15.39;100.00
49455;BME280;69710;64.656;21.218;2023-07-20T12:28:14;99955.76;;;15.02;100.00
49455;BME280;69710;64.656;21.218;2023-07-20T12:30:44;99955.36;;;15.46;100.00
49455;BME280;69710;64.656;21.218;2023-07-20T12:33:12;99951.71;;;15.58;100.00
49455;BME280;69710;64.656;21.218;2023-07-20T12:35:39;99951.23;;;15.39;100.00
49455;BME280;69710;64.656;21.218;2023-07-20T12:38:07;99956.25;;;15.55;100.00
49455;BME280;69710;64.656;21.218;2023-07-20T12:40:35;99962.88;;;15.57;100.00
49455;BME280;69710;64.656;21.218;2023-07-20T12:43:02;99961.50;;;14.56;100.00
49455;BME280;69710;64.656;21.218;2023-07-20T12:45:30;99964.39;;;13.62;100.00
49455;BME280;69710;64.656;21.218;2023-07-20T12:47:58;99958.82;;;13.83;100.00